Time;durP1;ratioP1;P1;durP2;ratioP2;P2;SDS_P1;SDS_P2;PMS_P1;PMS_P2;Temp;Humidity;BMP_temperature;BMP_pressure;BME280_temperature;BME280_humidity;BME280_pressure;Samples;Min_cycle;Max_cycle;Signal;HPM_P1;HPM_P2
2022/11/15 00:01:56;;;;;;;2.92;2.65;;;;;;;8.96;66.64;100374.47;4386629;32;32848;-90
2022/11/15 00:04:43;;;;;;;2.47;2.20;;;;;;;8.69;67.35;100373.47;4385667;32;32955;-90
2022/11/15 00:07:29;;;;;;;3.37;3.00;;;;;;;8.78;67.47;100375.81;4372004;32;32631;-90
2022/11/15 00:10:36;;;;;;;4.07;3.80;;;;;;;8.88;67.20;100381.75;4383879;32;32709;-89
2022/11/15 00:13:23;;;;;;;4.37;1.55;;;;;;;8.81;67.09;100373.13;4385881;32;32672;-90
2022/11/15 00:16:12;;;;;;;2.58;2.37;;;;;;;8.78;67.55;100373.19;4388236;32;34940;-90
2022/11/15 00:18:58;;;;;;;1.45;1.35;;;;;;;8.94;67.08;100377.16;4390089;32;32790;-89
2022/11/15 00:21:44;;;;;;;1.62;1.52;;;;;;;9.04;66.25;100374.25;4384295;32;32180;-89
2022/11/15 00:24:31;;;;;;;3.25;3.05;;;;;;;9.07;66.28;100379.44;4388344;32;32311;-89
2022/11/15 00:27:17;;;;;;;3.20;2.72;;;;;;;8.81;67.08;100373.13;4388982;32;33349;-89
2022/11/15 00:30:03;;;;;;;2.40;1.10;;;;;;;8.79;67.44;100376.72;4384399;32;32458;-89
2022/11/15 00:32:50;;;;;;;5.00;2.62;;;;;;;8.81;67.67;100373.13;4385444;32;33693;-89
2022/11/15 00:35:36;;;;;;;8.48;2.12;;;;;;;9.06;66.28;100365.41;4387065;32;34247;-90
2022/11/15 00:38:22;;;;;;;2.05;1.62;;;;;;;9.02;66.97;100362.87;4384096;32;33665;-90
2022/11/15 00:41:09;;;;;;;3.85;2.95;;;;;;;8.98;67.27;100362.13;4386981;32;32942;-90
2022/11/15 00:43:55;;;;;;;2.60;2.42;;;;;;;9.16;66.74;100360.72;4396164;32;31664;-89
2022/11/15 00:46:41;;;;;;;5.25;3.62;;;;;;;9.10;66.97;100366.19;4384102;32;34003;-90
2022/11/15 00:49:27;;;;;;;2.70;2.50;;;;;;;9.07;67.20;100371.53;4385997;32;33000;-89
2022/11/15 00:52:13;;;;;;;2.42;1.65;;;;;;;9.25;66.62;100365.72;4386973;32;34325;-90
2022/11/15 00:54:59;;;;;;;0.95;0.88;;;;;;;9.07;67.34;100361.00;4387248;32;32794;-89
2022/11/15 00:57:46;;;;;;;2.40;2.30;;;;;;;9.06;67.30;100359.25;4385794;32;32661;-90
2022/11/15 01:00:32;;;;;;;6.78;4.72;;;;;;;9.02;67.32;100357.62;4381951;32;32876;-90
2022/11/15 01:03:18;;;;;;;2.90;2.67;;;;;;;9.17;66.89;100346.66;4385156;32;33974;-89
2022/11/15 01:06:05;;;;;;;2.85;1.60;;;;;;;9.01;67.53;100346.22;4383506;32;32056;-88
2022/11/15 01:08:51;;;;;;;2.72;2.55;;;;;;;9.59;65.16;100339.25;4392832;32;33998;-89
2022/11/15 01:11:39;;;;;;;1.50;1.40;;;;;;;9.55;64.89;100337.59;4383079;32;32695;-89
2022/11/15 01:14:26;;;;;;;1.70;1.70;;;;;;;9.42;64.94;100341.53;4389992;32;33330;-89
2022/11/15 01:17:12;;;;;;;2.17;1.85;;;;;;;9.30;64.94;100334.84;4385284;32;33363;-89
2022/11/15 01:19:58;;;;;;;2.03;1.83;;;;;;;8.69;66.99;100326.94;4389603;32;32667;-89
2022/11/15 01:22:44;;;;;;;3.25;2.72;;;;;;;9.21;65.20;100329.88;4385357;32;33428;-85
2022/11/15 01:25:30;;;;;;;3.40;1.95;;;;;;;9.03;65.34;100322.50;4386473;32;34049;-86
2022/11/15 01:28:17;;;;;;;3.08;1.90;;;;;;;9.00;65.41;100317.31;4395366;32;33199;-86
2022/11/15 01:31:10;;;;;;;2.70;1.67;;;;;;;8.71;66.72;100319.84;4390447;32;33487;-86
2022/11/15 01:33:56;;;;;;;1.85;1.75;;;;;;;8.82;66.43;100319.53;4388405;32;34118;-87
2022/11/15 01:36:42;;;;;;;2.05;1.50;;;;;;;8.60;66.93;100323.69;4372653;32;33425;-87
2022/11/15 01:39:28;;;;;;;3.28;2.97;;;;;;;8.78;66.79;100317.91;4384411;32;33027;-88
2022/11/15 01:42:15;;;;;;;7.82;2.85;;;;;;;8.76;66.76;100325.00;4382966;32;33683;-87
2022/11/15 01:45:05;;;;;;;1.58;1.48;;;;;;;8.82;66.79;100314.28;4370624;32;32842;-86
2022/11/15 01:47:53;;;;;;;2.22;2.12;;;;;;;8.93;66.28;100317.50;4380100;32;32190;-86
2022/11/15 01:50:38;;;;;;;2.97;2.80;;;;;;;8.87;66.37;100306.25;4387655;32;32232;-86
2022/11/15 01:53:26;;;;;;;1.12;1.12;;;;;;;8.64;67.27;100314.78;4384791;32;34511;-87
2022/11/15 01:56:15;;;;;;;3.25;2.95;;;;;;;8.45;68.28;100317.06;4384049;32;32400;-86
2022/11/15 01:59:03;;;;;;;1.85;1.70;;;;;;;8.80;67.68;100308.22;4391511;32;32759;-86
2022/11/15 02:01:50;;;;;;;1.30;1.20;;;;;;;8.93;66.65;100309.59;4383314;32;32077;-88
2022/11/15 02:04:41;;;;;;;1.02;1.02;;;;;;;8.74;67.58;100303.12;4396973;32;33801;-88
2022/11/15 02:07:28;;;;;;;7.07;4.55;;;;;;;8.96;67.31;100298.94;4384193;32;33477;-88
2022/11/15 02:10:20;;;;;;;4.47;3.35;;;;;;;9.36;65.15;100300.41;4395348;32;33472;-88
2022/11/15 02:13:08;;;;;;;1.25;1.23;;;;;;;9.17;65.53;100288.72;4372760;32;32885;-88
2022/11/15 02:16:21;;;;;;;4.05;3.78;;;;;;;8.83;67.11;100286.19;4382775;32;32569;-88
2022/11/15 02:19:32;;;;;;;3.62;2.85;;;;;;;8.70;67.64;100278.66;4394617;32;33443;-87
2022/11/15 02:22:50;;;;;;;3.35;2.78;;;;;;;8.85;67.14;100277.34;4386984;32;33842;-87
2022/11/15 02:25:47;;;;;;;3.58;3.28;;;;;;;8.89;67.26;100278.97;4396299;32;33814;-87
2022/11/15 02:28:33;;;;;;;3.12;2.85;;;;;;;9.13;66.60;100279.16;4386218;32;32452;-87
2022/11/15 02:31:28;;;;;;;5.07;3.10;;;;;;;8.81;67.55;100280.97;4395043;32;32864;-87
2022/11/15 02:34:25;;;;;;;1.40;1.30;;;;;;;9.14;66.49;100283.53;4387975;32;34256;-87
2022/11/15 02:37:26;;;;;;;3.37;2.30;;;;;;;9.23;65.76;100268.28;4393585;32;34122;-87
2022/11/15 02:40:30;;;;;;;4.68;4.37;;;;;;;9.32;65.08;100277.69;4398002;32;32714;-87
2022/11/15 02:49:37;;;;;;;0.75;0.70;;;;;;;8.78;66.50;100273.12;4382460;32;33367;-87
2022/11/15 02:52:27;;;;;;;6.25;3.95;;;;;;;8.78;67.25;100270.50;4385821;32;32738;-86
2022/11/15 02:55:31;;;;;;;4.97;4.57;;;;;;;9.05;65.97;100267.97;4385684;32;33973;-86
2022/11/15 02:59:15;;;;;;;3.53;3.25;;;;;;;8.83;67.01;100273.91;4384502;32;32367;-86
2022/11/15 03:02:17;;;;;;;6.55;4.07;;;;;;;8.78;67.11;100273.12;4400168;32;32415;-85
2022/11/15 03:05:41;;;;;;;2.28;2.08;;;;;;;8.96;66.63;100264.72;4399107;32;33503;-85
2022/11/15 03:08:45;;;;;;;4.78;3.17;;;;;;;8.59;67.72;100258.78;4385807;32;33773;-90
2022/11/15 03:11:38;;;;;;;4.90;4.53;;;;;;;8.75;67.26;100260.09;4387561;32;32755;-90
2022/11/15 03:14:25;;;;;;;;;;;;;;;8.70;67.59;100262.84;4396400;32;34271;-89
2022/11/15 03:17:17;;;;;;;3.72;2.20;;;;;;;9.04;66.80;100267.13;4385478;32;33984;-90
2022/11/15 03:20:06;;;;;;;2.53;2.22;;;;;;;9.03;66.39;100264.53;4385214;32;34613;-89
2022/11/15 03:22:54;;;;;;;1.58;1.45;;;;;;;8.92;66.89;100263.06;4386354;32;33605;-90
2022/11/15 03:25:51;;;;;;;3.08;2.87;;;;;;;8.85;67.23;100260.69;4389560;32;32464;-90
2022/11/15 03:29:01;;;;;;;2.50;2.35;;;;;;;8.90;67.04;100248.25;4390980;32;33582;-89
2022/11/15 03:31:52;;;;;;;2.65;2.40;;;;;;;9.12;66.68;100243.19;4389330;32;33335;-90
2022/11/15 03:34:47;;;;;;;2.45;2.35;;;;;;;8.94;66.93;100240.19;4393714;32;34486;-90
2022/11/15 03:37:40;;;;;;;2.35;2.22;;;;;;;8.97;67.14;100244.50;4388638;32;33116;-89
2022/11/15 03:40:37;;;;;;;3.10;2.78;;;;;;;9.07;66.98;100234.53;4385533;32;32639;-89
2022/11/15 03:43:53;;;;;;;12.50;1.75;;;;;;;9.03;67.09;100232.94;4383307;32;33513;-89
2022/11/15 03:46:46;;;;;;;4.75;2.37;;;;;;;9.05;67.43;100224.06;4395190;32;33918;-89
2022/11/15 03:49:34;;;;;;;3.10;2.80;;;;;;;9.09;67.10;100220.44;4390718;32;33004;-89
2022/11/15 03:52:22;;;;;;;0.90;0.90;;;;;;;9.44;65.95;100213.16;4386326;32;33776;-89
2022/11/15 03:55:11;;;;;;;0.70;0.70;;;;;;;8.92;67.49;100217.44;4374883;32;33412;-87
2022/11/15 03:57:59;;;;;;;2.12;1.90;;;;;;;8.81;68.30;100228.31;4382090;32;33597;-87
2022/11/15 04:00:45;;;;;;;0.28;0.28;;;;;;;8.99;67.88;100226.91;4384815;32;34368;-87
2022/11/15 04:03:32;;;;;;;3.15;1.62;;;;;;;9.63;65.60;100203.75;4386886;32;32506;-89
2022/11/15 04:06:18;;;;;;;2.85;2.53;;;;;;;9.44;65.87;100203.50;4386500;32;34042;-89
2022/11/15 04:09:04;;;;;;;22.45;1.37;;;;;;;9.13;67.29;100202.75;4386046;32;33145;-89
2022/11/15 04:11:51;;;;;;;2.87;2.67;;;;;;;9.22;66.99;100194.56;4391857;32;33978;-89
2022/11/15 04:15:06;;;;;;;2.47;2.03;;;;;;;9.13;67.47;100208.03;4386496;32;32558;-88
2022/11/15 04:17:46;;;;;;;1.50;1.42;;;;;;;9.20;67.20;100210.41;4374279;32;34137;-87
2022/11/15 04:26:52;;;;;;;2.67;1.37;;;;;;;9.48;66.73;100213.03;4384820;32;32575;-88
2022/11/15 04:29:39;;;;;;;1.25;1.23;;;;;;;9.33;66.99;100216.16;4389873;32;31831;-88
2022/11/15 04:32:25;;;;;;;0.98;0.98;;;;;;;9.36;66.95;100209.94;4386219;32;33066;-89
2022/11/15 04:35:11;;;;;;;1.27;1.27;;;;;;;9.87;64.78;100188.88;4387011;32;33347;-88
2022/11/15 04:37:58;;;;;;;2.83;2.60;;;;;;;9.96;64.08;100185.91;4384648;32;32738;-87
2022/11/15 04:40:44;;;;;;;5.12;2.30;;;;;;;9.52;65.55;100189.22;4386012;32;33676;-87
2022/11/15 04:43:30;;;;;;;3.10;1.67;;;;;;;9.15;66.91;100179.84;4384459;32;33046;-86
2022/11/15 04:46:23;;;;;;;5.00;4.30;;;;;;;9.10;67.25;100171.22;4391192;32;32094;-86
2022/11/15 04:49:09;;;;;;;2.03;1.92;;;;;;;8.97;67.95;100181.28;4385696;32;32556;-86
2022/11/15 04:51:56;;;;;;;2.28;2.15;;;;;;;9.08;67.32;100183.59;4397307;32;34191;-87
2022/11/15 04:54:42;;;;;;;2.65;2.50;;;;;;;9.19;67.06;100192.03;4386456;32;33189;-85
2022/11/15 04:57:28;;;;;;;1.42;1.35;;;;;;;9.30;66.70;100189.03;4386894;32;32996;-86
2022/11/15 05:00:16;;;;;;;1.27;1.17;;;;;;;9.28;66.87;100191.72;4383448;32;32849;-86
2022/11/15 05:06:07;;;;;;;0.40;0.40;;;;;;;9.39;66.22;100184.31;4394382;32;35661;-87
2022/11/15 05:08:54;;;;;;;5.03;2.90;;;;;;;9.48;66.00;100189.31;4392746;32;34096;-87
2022/11/15 05:11:40;;;;;;;4.12;3.15;;;;;;;9.26;66.86;100193.56;4384164;32;33936;-85
2022/11/15 05:14:26;;;;;;;0.77;0.77;;;;;;;9.39;66.58;100194.00;4394180;32;32817;-85
2022/11/15 05:17:12;;;;;;;1.37;1.27;;;;;;;9.77;65.11;100189.25;4384954;32;34775;-85
2022/11/15 05:19:58;;;;;;;2.03;1.85;;;;;;;9.69;64.97;100187.75;4384251;32;33267;-85
2022/11/15 05:22:45;;;;;;;1.92;1.77;;;;;;;9.64;65.41;100178.28;4391047;32;32865;-85
2022/11/15 05:25:31;;;;;;;13.35;2.10;;;;;;;9.57;65.82;100174.09;4387633;32;33025;-85
2022/11/15 05:28:17;;;;;;;2.10;2.00;;;;;;;9.53;66.02;100175.09;4387436;32;35673;-86
2022/11/15 05:31:06;;;;;;;1.48;1.37;;;;;;;9.75;65.49;100171.69;4384544;32;32992;-86
2022/11/15 05:33:53;;;;;;;3.08;2.75;;;;;;;9.63;65.64;100163.34;4389700;32;32774;-86
2022/11/15 05:36:43;;;;;;;4.18;2.65;;;;;;;9.48;66.30;100176.13;4370444;32;33447;-86
2022/11/15 05:39:29;;;;;;;5.53;2.15;;;;;;;9.47;66.54;100158.59;4384663;32;32559;-87
2022/11/15 05:42:15;;;;;;;1.90;1.80;;;;;;;9.45;66.70;100170.97;4392544;32;33043;-85
2022/11/15 05:45:05;;;;;;;1.75;1.40;;;;;;;9.60;66.38;100171.38;4386975;32;33698;-85
2022/11/15 05:47:52;;;;;;;2.47;2.37;;;;;;;9.58;66.41;100168.75;4392616;32;32960;-85
2022/11/15 05:50:39;;;;;;;1.10;1.10;;;;;;;9.75;65.97;100160.28;4395324;32;34052;-85
2022/11/15 05:53:25;;;;;;;6.07;3.05;;;;;;;9.71;66.06;100177.13;4386932;32;34120;-86
2022/11/15 05:56:12;;;;;;;4.37;2.85;;;;;;;9.67;66.23;100175.50;4396523;32;33105;-85
2022/11/15 05:58:58;;;;;;;4.95;3.08;;;;;;;9.63;66.43;100171.25;4393489;32;34258;-85
2022/11/15 06:01:44;;;;;;;0.50;0.50;;;;;;;9.71;66.20;100163.94;4377782;32;33284;-85
2022/11/15 06:04:31;;;;;;;3.50;1.77;;;;;;;9.70;66.30;100151.69;4382001;32;33687;-87
2022/11/15 06:07:17;;;;;;;0.98;0.98;;;;;;;9.64;66.66;100149.28;4394583;32;33737;-84
2022/11/15 06:10:04;;;;;;;1.65;1.55;;;;;;;9.58;67.05;100155.59;4383607;32;33433;-84
2022/11/15 06:13:01;;;;;;;0.93;0.93;;;;;;;9.69;66.51;100161.38;4382007;32;31916;-86
2022/11/15 06:15:47;;;;;;;0.28;0.28;;;;;;;9.71;66.75;100164.81;4383566;32;32456;-87
2022/11/15 06:18:34;;;;;;;0.52;0.52;;;;;;;9.75;66.70;100160.28;4385257;32;33660;-87
2022/11/15 06:21:21;;;;;;;0.85;0.85;;;;;;;9.90;66.24;100162.37;4384539;32;34293;-86
2022/11/15 06:24:07;;;;;;;2.42;1.52;;;;;;;9.95;66.29;100167.50;4385661;32;33974;-87
2022/11/15 06:26:53;;;;;;;12.50;3.60;;;;;;;9.82;66.55;100169.69;4390050;32;32691;-87
2022/11/15 06:29:39;;;;;;;3.00;2.33;;;;;;;10.02;66.47;100169.03;4384086;32;33421;-87
2022/11/15 06:32:25;;;;;;;2.17;2.08;;;;;;;10.20;65.98;100167.47;4385698;32;33982;-87
2022/11/15 06:35:12;;;;;;;1.73;1.35;;;;;;;10.16;66.16;100171.16;4372561;32;32917;-87
2022/11/15 06:38:07;;;;;;;2.15;2.05;;;;;;;10.21;66.27;100170.09;4384570;32;33293;-86
2022/11/15 06:40:54;;;;;;;2.15;2.05;;;;;;;10.31;65.96;100175.91;4365029;32;33798;-86
2022/11/15 06:43:40;;;;;;;1.25;1.25;;;;;;;10.05;66.79;100168.91;4370342;32;34349;-86
2022/11/15 06:46:26;;;;;;;0.68;0.68;;;;;;;10.14;66.59;100173.00;4386397;32;33781;-86
2022/11/15 06:49:13;;;;;;;2.62;2.42;;;;;;;10.32;66.15;100164.44;4392592;32;34155;-86
2022/11/15 06:51:59;;;;;;;1.75;0.80;;;;;;;10.33;66.19;100166.16;4393367;32;32989;-86
2022/11/15 06:54:45;;;;;;;6.95;3.30;;;;;;;10.19;66.93;100173.69;4392379;32;33285;-86
2022/11/15 06:57:32;;;;;;;7.00;2.03;;;;;;;10.09;66.99;100167.03;4378128;32;32783;-86
2022/11/15 07:00:21;;;;;;;2.22;2.03;;;;;;;10.21;66.67;100163.94;4391227;32;32534;-87
2022/11/15 07:03:08;;;;;;;4.37;2.92;;;;;;;10.45;65.93;100156.94;4391448;32;32425;-86
2022/11/15 07:05:56;;;;;;;1.62;1.52;;;;;;;10.48;66.15;100156.81;4383985;32;34094;-86
2022/11/15 07:08:46;;;;;;;3.08;2.37;;;;;;;10.24;67.18;100154.16;4381456;32;35548;-86
2022/11/15 07:11:33;;;;;;;4.03;2.92;;;;;;;10.48;66.51;100151.53;4392920;32;33483;-86
2022/11/15 07:14:18;;;;;;;2.87;2.67;;;;;;;10.64;66.08;100157.97;4388184;32;33850;-86
2022/11/15 07:17:05;;;;;;;1.27;1.27;;;;;;;10.34;67.13;100144.12;4377972;32;34425;-86
2022/11/15 07:19:51;;;;;;;2.15;2.05;;;;;;;10.61;66.48;100144.84;4384903;32;34007;-86
2022/11/15 07:22:37;;;;;;;4.65;2.70;;;;;;;10.38;66.92;100145.72;4386084;32;32663;-86
2022/11/15 07:25:23;;;;;;;5.07;3.33;;;;;;;10.45;67.15;100149.88;4392459;32;33397;-87
2022/11/15 07:28:09;;;;;;;0.90;0.90;;;;;;;10.68;66.43;100137.56;4396226;32;34682;-85
2022/11/15 07:30:56;;;;;;;4.12;1.77;;;;;;;10.68;66.48;100132.28;4387660;32;33944;-87
2022/11/15 07:33:42;;;;;;;7.93;4.37;;;;;;;10.99;65.48;100132.78;4389284;32;33153;-86
2022/11/15 07:36:28;;;;;;;4.05;3.67;;;;;;;11.00;64.87;100145.06;4385027;32;33868;-85
2022/11/15 07:39:14;;;;;;;2.47;2.28;;;;;;;10.86;65.51;100141.25;4387477;32;32907;-84
2022/11/15 07:45:06;;;;;;;1.62;1.25;;;;;;;10.83;65.71;100147.53;4385833;32;33959;-86
2022/11/15 07:47:52;;;;;;;2.17;1.90;;;;;;;10.77;66.41;100150.41;4385837;32;34382;-85
2022/11/15 07:50:42;;;;;;;3.03;2.83;;;;;;;10.56;66.99;100161.81;4382940;32;33067;-85
2022/11/15 07:53:29;;;;;;;2.37;2.17;;;;;;;11.02;64.62;100140.59;4383077;32;35572;-85
2022/11/15 07:56:15;;;;;;;2.42;2.08;;;;;;;10.77;66.12;100142.47;4381789;32;34660;-86
2022/11/15 07:59:01;;;;;;;1.87;1.77;;;;;;;10.85;65.97;100140.41;4383544;32;34631;-85
2022/11/15 08:01:48;;;;;;;2.65;2.45;;;;;;;11.11;64.94;100141.13;4392769;32;34214;-85
2022/11/15 08:04:34;;;;;;;1.30;1.23;;;;;;;10.93;65.10;100138.31;4387775;32;32488;-86
2022/11/15 08:07:20;;;;;;;3.10;2.70;;;;;;;10.96;65.23;100140.81;4384567;32;32789;-86
2022/11/15 08:10:07;;;;;;;4.05;2.67;;;;;;;10.42;66.92;100151.75;4402202;32;33674;-91
2022/11/15 08:13:21;;;;;;;2.85;2.65;;;;;;;10.69;66.85;100136.66;4377836;32;34057;-91
2022/11/15 08:16:11;;;;;;;2.12;1.98;;;;;;;10.62;66.27;100121.94;4375365;32;32629;-92
2022/11/15 08:18:58;;;;;;;2.75;2.53;;;;;;;10.72;65.80;100118.03;4375949;32;32600;-92
2022/11/15 08:21:46;;;;;;;3.72;1.90;;;;;;;10.92;65.44;100109.31;4378272;32;33170;-92
2022/11/15 08:24:52;;;;;;;2.08;1.98;;;;;;;10.57;66.20;100102.78;4373943;32;32940;-93
2022/11/15 08:28:01;;;;;;;6.35;3.65;;;;;;;10.75;65.59;100099.44;4374157;32;32951;-92
2022/11/15 08:30:59;;;;;;;3.37;3.17;;;;;;;10.33;67.40;100116.00;4387914;32;32959;-92
2022/11/15 08:34:03;;;;;;;5.65;2.83;;;;;;;10.49;66.82;100111.00;4379925;32;32722;-86
2022/11/15 08:36:50;;;;;;;21.08;3.42;;;;;;;10.07;68.00;100113.47;4383038;32;34466;-86
2022/11/15 08:39:36;;;;;;;2.53;2.33;;;;;;;10.16;67.99;100110.44;4385231;32;32875;-86
2022/11/15 08:42:22;;;;;;;1.25;1.25;;;;;;;10.70;66.35;100101.41;4377860;32;33165;-86
2022/11/15 08:45:09;;;;;;;3.30;3.00;;;;;;;10.24;68.25;100100.50;4382148;32;33850;-86
2022/11/15 08:47:55;;;;;;;2.45;2.25;;;;;;;9.95;69.32;100099.78;4372276;32;34744;-86
2022/11/15 08:50:43;;;;;;;2.60;2.37;;;;;;;9.75;69.57;100094.37;4379792;32;34071;-86
2022/11/15 08:53:29;;;;;;;4.37;3.85;;;;;;;10.01;69.62;100093.41;4358927;32;32924;-87
2022/11/15 08:56:15;;;;;;;3.05;2.83;;;;;;;10.08;69.30;100088.78;4369053;32;34302;-86
2022/11/15 08:59:01;;;;;;;2.65;2.25;;;;;;;10.03;69.73;100085.47;4365107;32;34285;-87
2022/11/15 09:01:47;;;;;;;4.60;3.75;;;;;;;9.86;70.19;100089.56;4380014;32;35850;-86
2022/11/15 09:04:36;;;;;;;2.85;2.65;;;;;;;9.93;70.12;100091.06;4369036;32;32786;-86
2022/11/15 09:07:22;;;;;;;1.77;1.27;;;;;;;10.06;70.25;100085.31;4372055;32;34864;-86
2022/11/15 09:10:08;;;;;;;5.57;3.22;;;;;;;10.13;69.81;100089.47;4364257;32;33529;-86
2022/11/15 09:12:56;;;;;;;2.30;1.92;;;;;;;10.19;69.81;100078.69;4360911;32;33412;-86
2022/11/15 09:15:43;;;;;;;4.60;2.70;;;;;;;10.50;68.49;100081.06;4369469;32;33455;-87
2022/11/15 09:18:29;;;;;;;4.40;3.15;;;;;;;10.39;69.26;100072.66;4370751;32;33945;-86
2022/11/15 09:21:15;;;;;;;12.18;4.70;;;;;;;10.77;67.59;100073.81;4376071;32;34354;-86
2022/11/15 09:24:04;;;;;;;1.60;1.58;;;;;;;11.01;66.64;100078.13;4360031;32;32183;-86
2022/11/15 09:26:51;;;;;;;1.50;1.45;;;;;;;10.77;67.37;100084.37;4370788;32;33301;-86
2022/11/15 09:29:55;;;;;;;4.50;4.00;;;;;;;10.84;67.54;100077.94;4369472;32;32598;-86
2022/11/15 09:32:41;;;;;;;1.45;1.37;;;;;;;10.75;67.20;100073.88;4364100;32;33375;-87
2022/11/15 09:35:40;;;;;;;2.85;2.67;;;;;;;10.81;67.19;100070.13;4379834;32;33600;-93
2022/11/15 09:38:38;;;;;;;3.50;3.22;;;;;;;11.16;66.55;100059.91;4392093;32;32233;-91
2022/11/15 09:42:05;;;;;;;2.78;2.05;;;;;;;11.12;67.15;100064.47;4386720;32;32352;-85
2022/11/15 09:44:57;;;;;;;3.58;2.78;;;;;;;10.95;67.30;100057.22;4386187;32;34864;-85
2022/11/15 09:48:03;;;;;;;3.03;2.83;;;;;;;10.70;68.28;100064.41;4388677;32;33566;-85
2022/11/15 09:50:49;;;;;;;3.65;2.85;;;;;;;10.97;67.64;100060.66;4385868;32;34227;-86
2022/11/15 09:53:22;;;;;;;1.87;1.77;;;;;;;10.93;68.21;100063.50;4398169;32;34973;-86
2022/11/15 09:56:20;;;;;;;2.40;2.20;;;;;;;11.06;67.81;100054.13;4385498;32;33690;-85
2022/11/15 09:59:03;;;;;;;1.90;1.80;;;;;;;11.39;65.70;100051.84;4389358;32;33896;-85
2022/11/15 10:02:03;;;;;;;3.53;3.15;;;;;;;10.98;66.33;100046.53;4385194;32;33765;-85
2022/11/15 10:04:31;;;;;;;5.45;4.62;;;;;;;10.94;66.85;100050.22;4402908;32;34252;-85
2022/11/15 10:07:24;;;;;;;1.85;1.80;;;;;;;10.92;67.26;100041.50;4385063;32;33365;-85
2022/11/15 10:10:08;;;;;;;2.75;2.55;;;;;;;11.13;66.25;100038.88;4402117;32;35782;-85
2022/11/15 10:12:35;;;;;;;4.90;3.33;;;;;;;11.07;66.76;100034.72;4376944;32;33281;-85
2022/11/15 10:15:11;;;;;;;5.30;3.10;;;;;;;11.15;66.48;100029.09;4385738;32;33630;-85
2022/11/15 10:18:15;;;;;;;3.10;2.80;;;;;;;10.84;67.42;100021.59;4381703;32;33134;-85
2022/11/15 10:20:52;;;;;;;1.25;1.15;;;;;;;10.84;67.29;100024.25;4390612;32;34089;-85
2022/11/15 10:23:22;;;;;;;9.80;4.55;;;;;;;10.84;67.40;100027.75;4400542;32;32803;-85
2022/11/15 10:25:55;;;;;;;2.40;2.15;;;;;;;11.11;66.81;100009.87;4380790;32;34245;-85
2022/11/15 10:28:30;;;;;;;5.70;3.55;;;;;;;11.39;65.81;100008.69;4382657;32;34496;-85
2022/11/15 10:31:00;;;;;;;20.17;6.57;;;;;;;11.28;66.01;100009.16;4392967;32;33943;-92
2022/11/15 10:33:33;;;;;;;3.62;3.30;;;;;;;11.29;66.46;100008.22;4390673;32;32100;-91
2022/11/15 10:36:57;;;;;;;3.42;2.85;;;;;;;11.05;67.05;100006.63;4345128;32;35339;-87
2022/11/15 10:39:25;;;;;;;;;;;;;;;11.28;66.39;100007.34;4319598;33;34669;-87
2022/11/15 10:42:26;;;;;;;2.00;1.85;;;;;;;11.28;66.53;99998.56;4350715;32;33726;-87
2022/11/15 10:44:54;;;;;;;12.02;5.97;;;;;;;11.07;66.71;100002.16;4343654;32;33904;-88
2022/11/15 10:47:28;;;;;;;4.87;2.50;;;;;;;10.82;67.47;99995.22;4343758;33;33799;-86
2022/11/15 10:50:06;;;;;;;1.80;1.70;;;;;;;11.31;66.08;99987.03;4355765;32;34423;-86
2022/11/15 10:56:57;;;;;;;16.37;6.18;;;;;;;11.11;67.05;99982.56;4365098;32;34193;-95
2022/11/15 10:59:55;;;;;;;5.35;3.30;;;;;;;11.23;66.73;99971.47;4387008;32;32720;-94
2022/11/15 11:02:38;;;;;;;4.82;4.32;;;;;;;11.15;66.63;99961.22;4390030;32;32212;-94
2022/11/15 11:05:33;;;;;;;4.55;4.15;;;;;;;11.20;66.51;99956.63;4367524;32;32545;-95
2022/11/15 11:08:12;;;;;;;4.72;4.32;;;;;;;11.28;66.41;99956.28;4344654;32;32507;-85
2022/11/15 11:10:55;;;;;;;3.78;2.25;;;;;;;11.44;66.24;99959.09;4349554;32;33596;-85
2022/11/15 11:13:36;;;;;;;4.35;4.03;;;;;;;11.31;65.83;99963.22;4335089;32;34145;-87
2022/11/15 11:16:13;;;;;;;7.70;4.75;;;;;;;10.99;66.94;99953.13;4348754;32;33118;-85
2022/11/15 11:19:12;;;;;;;4.10;3.53;;;;;;;11.10;66.95;99949.16;4344453;32;33528;-85
2022/11/15 11:22:11;;;;;;;4.53;4.18;;;;;;;10.62;68.75;99950.31;4359726;32;32825;-85
2022/11/15 11:24:38;;;;;;;7.32;2.30;;;;;;;10.95;67.53;99950.66;4344010;32;33849;-84
2022/11/15 11:27:25;;;;;;;6.30;2.45;;;;;;;11.01;67.41;99945.13;4345752;32;36500;-84
2022/11/15 11:30:07;;;;;;;3.83;3.60;;;;;;;10.87;67.65;99936.94;4344390;32;33763;-86
2022/11/15 11:32:53;;;;;;;;;;;;;;;10.68;68.09;99937.72;4360194;32;33209;-87
2022/11/15 11:35:36;;;;;;;2.12;2.03;;;;;;;10.77;67.92;99936.47;4343523;32;33185;-95
2022/11/15 11:38:43;;;;;;;2.25;2.15;;;;;;;10.64;68.52;99935.28;4373067;32;20086;-94
2022/11/15 11:41:29;;;;;;;5.57;2.15;;;;;;;10.87;67.18;99932.53;4338654;32;32579;-94
2022/11/15 11:44:32;;;;;;;2.30;2.17;;;;;;;10.92;67.62;99938.47;4381705;32;32496;-94
2022/11/15 11:47:21;;;;;;;3.75;3.42;;;;;;;10.99;67.22;99939.06;4352839;32;32922;-94
2022/11/15 11:50:21;;;;;;;6.43;4.62;;;;;;;11.15;66.93;99936.59;4356984;32;32294;-92
2022/11/15 11:53:12;;;;;;;4.03;3.67;;;;;;;11.14;66.56;99921.66;4336148;32;32038;-92
2022/11/15 11:56:07;;;;;;;4.93;4.00;;;;;;;10.84;67.81;99921.22;4354599;32;32850;-93
2022/11/15 11:58:48;;;;;;;9.32;2.87;;;;;;;11.09;66.84;99910.44;4350119;32;33277;-92
2022/11/15 12:01:43;;;;;;;4.32;3.95;;;;;;;11.31;66.12;99905.94;4342066;33;32437;-86
2022/11/15 12:04:20;;;;;;;8.73;3.30;;;;;;;11.34;65.89;99895.19;4319303;33;32140;-86
2022/11/15 12:06:53;;;;;;;9.18;4.90;;;;;;;11.24;66.64;99894.75;4336671;33;34137;-86
2022/11/15 12:09:41;;;;;;;7.50;4.32;;;;;;;11.23;66.75;99892.19;4328050;33;33245;-86
2022/11/15 12:12:22;;;;;;;2.58;2.37;;;;;;;11.34;66.42;99881.97;4336838;33;32255;-86
2022/11/15 12:15:13;;;;;;;4.10;3.62;;;;;;;11.06;67.74;99886.78;4332119;33;34595;-86
2022/11/15 12:17:41;;;;;;;7.53;5.25;;;;;;;11.12;67.67;99881.25;4320409;33;33733;-83
2022/11/15 12:20:18;;;;;;;3.90;2.50;;;;;;;11.21;67.29;99878.19;4330062;32;33364;-82
2022/11/15 12:23:06;;;;;;;14.13;6.65;;;;;;;11.26;67.23;99870.91;4344750;32;32510;-82
2022/11/15 12:25:48;;;;;;;8.13;4.93;;;;;;;11.19;67.67;99874.75;4327473;33;32987;-82
2022/11/15 12:28:37;;;;;;;4.87;3.75;;;;;;;10.84;68.53;99869.25;4322113;33;32233;-82
2022/11/15 12:31:34;;;;;;;3.87;3.62;;;;;;;11.35;66.35;99859.94;4334805;33;33518;-85
2022/11/15 12:34:28;;;;;;;5.87;4.55;;;;;;;11.01;67.43;99861.47;4343967;33;33980;-87
2022/11/15 12:36:56;;;;;;;2.45;2.28;;;;;;;11.02;68.04;99859.66;4332411;33;33217;-85
2022/11/15 12:40:01;;;;;;;4.12;3.78;;;;;;;11.16;67.63;99853.75;4316489;33;33507;-85
2022/11/15 12:42:31;;;;;;;5.05;4.10;;;;;;;11.18;67.63;99847.47;4343420;33;32969;-85
2022/11/15 12:44:59;;;;;;;4.60;4.25;;;;;;;11.29;66.81;99839.03;4323936;33;33914;-85
2022/11/15 12:47:27;;;;;;;5.30;4.62;;;;;;;10.80;68.16;99843.03;4317417;33;32096;-85
2022/11/15 12:49:55;;;;;;;4.50;4.10;;;;;;;10.86;67.94;99830.41;4339726;33;32974;-87
2022/11/15 12:52:22;;;;;;;4.25;3.05;;;;;;;10.78;69.07;99832.56;4324984;33;33202;-85
2022/11/15 12:54:53;;;;;;;2.35;2.15;;;;;;;10.60;69.98;99844.78;4325388;33;32864;-84
2022/11/15 12:57:28;;;;;;;3.30;3.08;;;;;;;10.97;68.42;99843.16;4335374;33;33411;-87
2022/11/15 13:00:01;;;;;;;2.95;2.75;;;;;;;10.94;68.31;99844.16;4340819;32;33828;-85
2022/11/15 13:02:36;;;;;;;9.57;4.70;;;;;;;11.15;67.50;99830.88;4351832;32;33978;-87
2022/11/15 13:05:13;;;;;;;1.83;1.73;;;;;;;10.61;69.35;99853.53;4353175;32;33040;-85
2022/11/15 13:07:40;;;;;;;4.12;3.83;;;;;;;10.79;68.69;99846.63;4352101;32;35319;-87
2022/11/15 13:10:11;;;;;;;4.78;3.67;;;;;;;10.84;68.65;99848.13;4337670;33;32363;-87
2022/11/15 13:12:42;;;;;;;4.07;3.75;;;;;;;10.79;68.87;99850.09;4338591;33;34255;-85
2022/11/15 13:15:13;;;;;;;4.60;3.62;;;;;;;11.03;68.26;99841.09;4355280;32;34001;-87
2022/11/15 13:17:50;;;;;;;5.15;3.97;;;;;;;10.82;69.13;99844.66;4352948;32;33445;-87
2022/11/15 13:20:27;;;;;;;3.87;3.22;;;;;;;10.92;68.82;99832.81;4365478;32;34461;-87
2022/11/15 13:23:12;;;;;;;6.20;3.83;;;;;;;10.56;69.24;99826.47;4340309;33;33931;-86
2022/11/15 13:25:47;;;;;;;4.53;4.18;;;;;;;10.64;69.60;99827.00;4350921;32;35190;-87
2022/11/15 13:28:15;;;;;;;6.05;4.03;;;;;;;10.69;69.73;99825.03;4345643;32;32507;-86
2022/11/15 13:30:52;;;;;;;2.33;2.22;;;;;;;10.85;68.83;99818.13;4356229;32;35370;-87